createdAt,value
2022-08-28T00:00:05.287Z,99823.41
2022-08-28T00:02:33.855Z,99831.00
2022-08-28T00:05:01.874Z,99831.22
2022-08-28T00:07:29.152Z,99834.50
2022-08-28T00:09:58.778Z,99826.56
2022-08-28T00:12:26.730Z,99829.72
2022-08-28T00:14:54.114Z,99829.00
2022-08-28T00:17:21.425Z,99830.28
2022-08-28T00:19:49.565Z,99834.00
2022-08-28T00:22:16.907Z,99832.06
2022-08-28T00:24:44.210Z,99832.34
2022-08-28T00:27:11.684Z,99837.34
2022-08-28T00:29:38.922Z,99846.81
2022-08-28T00:32:09.122Z,99845.53
2022-08-28T00:34:37.775Z,99851.19
2022-08-28T00:37:09.165Z,99850.75
2022-08-28T00:39:36.443Z,99847.41
2022-08-28T00:42:03.807Z,99848.97
2022-08-28T00:44:31.087Z,99852.03
2022-08-28T00:46:58.943Z,99854.41
2022-08-28T00:49:29.219Z,99852.84
2022-08-28T00:51:58.163Z,99860.66
2022-08-28T00:54:26.964Z,99860.25
2022-08-28T00:56:57.493Z,99854.81
2022-08-28T00:59:25.980Z,99844.81
2022-08-28T01:01:54.150Z,99855.88
2022-08-28T01:04:23.318Z,99844.66
2022-08-28T01:06:51.799Z,99852.53
2022-08-28T01:09:22.839Z,99855.31
2022-08-28T01:11:51.500Z,99851.66
2022-08-28T01:14:20.705Z,99851.47
2022-08-28T01:16:50.446Z,99850.78
2022-08-28T01:19:21.945Z,99853.38
2022-08-28T01:22:09.517Z,99852.28
2022-08-28T01:24:45.441Z,99852.44
2022-08-28T01:27:12.834Z,99842.84
2022-08-28T01:29:40.594Z,99850.91
2022-08-28T01:32:14.845Z,99838.25
2022-08-28T01:34:42.724Z,99837.34
2022-08-28T01:37:09.959Z,99842.38
2022-08-28T01:39:40.152Z,99840.56
2022-08-28T01:42:07.401Z,99840.91
2022-08-28T01:44:34.599Z,99837.94
2022-08-28T01:47:01.756Z,99844.50
2022-08-28T01:49:29.064Z,99840.06
2022-08-28T01:51:57.003Z,99842.28
2022-08-28T01:54:32.077Z,99843.16
2022-08-28T01:56:59.341Z,99839.09
2022-08-28T01:59:29.404Z,99841.38
2022-08-28T02:01:56.805Z,99841.56
2022-08-28T02:04:32.401Z,99842.19
2022-08-28T02:07:00.029Z,99836.41
2022-08-28T02:09:27.236Z,99826.97
2022-08-28T02:11:54.531Z,99832.19
2022-08-28T02:14:21.756Z,99834.69
2022-08-28T02:16:49.019Z,99832.56
2022-08-28T02:19:16.288Z,99828.41
2022-08-28T02:21:46.321Z,99830.88
2022-08-28T02:24:13.535Z,99835.72
2022-08-28T02:26:40.877Z,99836.22
2022-08-28T02:29:08.057Z,99834.66
2022-08-28T02:31:35.482Z,99830.78
2022-08-28T02:34:03.289Z,99834.72
2022-08-28T02:36:30.624Z,99829.00
2022-08-28T02:38:58.070Z,99828.84
2022-08-28T02:41:25.482Z,99830.91
2022-08-28T02:43:52.776Z,99840.28
2022-08-28T02:46:20.305Z,99845.41
2022-08-28T02:48:47.570Z,99842.25
2022-08-28T02:51:17.572Z,99832.44
2022-08-28T02:53:44.769Z,99846.50
2022-08-28T02:56:12.177Z,99844.56
2022-08-28T02:58:39.856Z,99845.59
2022-08-28T03:01:08.379Z,99848.34
2022-08-28T03:03:35.663Z,99852.25
2022-08-28T03:06:07.979Z,99850.50
2022-08-28T03:08:35.704Z,99848.97
2022-08-28T03:11:05.973Z,99848.94
2022-08-28T03:13:33.346Z,99851.16
2022-08-28T03:16:00.928Z,99854.09
2022-08-28T03:18:28.787Z,99854.81
2022-08-28T03:20:58.948Z,99855.09
2022-08-28T03:23:26.286Z,99852.00
2022-08-28T03:25:56.627Z,99859.09
2022-08-28T03:28:24.653Z,99855.09
2022-08-28T03:30:54.885Z,99859.81
2022-08-28T03:33:25.928Z,99868.69
2022-08-28T03:35:54.422Z,99862.75
2022-08-28T03:38:33.819Z,99859.41
2022-08-28T03:41:01.710Z,99862.25
2022-08-28T03:43:32.374Z,99860.72
2022-08-28T03:46:01.307Z,99870.53
2022-08-28T03:48:30.989Z,99876.97
2022-08-28T03:50:59.972Z,99876.59
2022-08-28T03:53:28.919Z,99878.53
2022-08-28T03:55:57.194Z,99876.44
2022-08-28T03:58:25.519Z,99882.59
2022-08-28T04:00:56.350Z,99880.59
2022-08-28T04:03:27.915Z,99885.16
2022-08-28T04:05:59.225Z,99884.28
2022-08-28T04:08:27.400Z,99901.31
2022-08-28T04:10:55.439Z,99881.06
2022-08-28T04:13:23.900Z,99892.06
2022-08-28T04:16:12.489Z,99902.63
2022-08-28T04:18:41.521Z,99900.56
2022-08-28T04:21:15.300Z,99897.97
2022-08-28T04:23:43.991Z,99899.81
2022-08-28T04:26:16.982Z,99904.50
2022-08-28T04:28:48.152Z,99906.97
2022-08-28T04:31:32.335Z,99908.31
2022-08-28T04:34:05.595Z,99920.53
2022-08-28T04:36:33.629Z,99923.78
2022-08-28T04:39:01.500Z,99921.66
2022-08-28T04:41:29.306Z,99920.25
2022-08-28T04:43:56.805Z,99917.88
2022-08-28T04:46:31.020Z,99924.09
2022-08-28T04:48:59.075Z,99931.78
2022-08-28T04:51:29.939Z,99932.13
2022-08-28T04:54:03.586Z,99926.50
2022-08-28T04:56:35.199Z,99931.53
2022-08-28T04:59:02.648Z,99935.69
2022-08-28T05:01:36.644Z,99929.94
2022-08-28T05:04:08.406Z,99935.84
2022-08-28T05:06:40.146Z,99930.56
2022-08-28T05:09:11.087Z,99937.75
2022-08-28T05:11:39.362Z,99935.03
2022-08-28T05:14:13.939Z,99935.81
2022-08-28T05:16:44.861Z,99939.47
2022-08-28T05:19:16.351Z,99933.84
2022-08-28T05:21:43.844Z,99939.50
2022-08-28T05:24:11.218Z,99940.03
2022-08-28T05:26:40.162Z,99941.31
2022-08-28T05:29:10.882Z,99940.88
2022-08-28T05:31:41.457Z,99942.03
2022-08-28T05:34:16.589Z,99938.75
2022-08-28T05:36:46.899Z,99935.00
2022-08-28T05:39:16.768Z,99941.22
2022-08-28T05:41:48.132Z,99933.50
2022-08-28T05:44:20.050Z,99933.97
2022-08-28T05:46:47.653Z,99938.97
2022-08-28T05:49:18.587Z,99937.28
2022-08-28T05:51:47.307Z,99937.25
2022-08-28T05:54:15.801Z,99941.81
2022-08-28T05:56:48.134Z,99943.81
2022-08-28T05:59:18.448Z,99941.34
2022-08-28T06:01:47.286Z,99943.81
2022-08-28T06:04:25.445Z,99944.47
2022-08-28T06:06:56.498Z,99944.91
2022-08-28T06:09:29.669Z,99954.28
2022-08-28T06:12:01.943Z,99950.56
2022-08-28T06:14:33.532Z,99948.84
2022-08-28T06:17:05.707Z,99955.09
2022-08-28T06:19:41.086Z,99959.09
2022-08-28T06:22:13.070Z,99948.84
2022-08-28T06:24:42.950Z,99959.28
2022-08-28T06:27:23.114Z,99961.28
2022-08-28T06:29:53.250Z,99961.91
2022-08-28T06:32:23.981Z,99961.31
2022-08-28T06:34:51.432Z,99969.47
2022-08-28T06:37:19.531Z,99972.28
2022-08-28T06:39:46.770Z,99962.00
2022-08-28T06:42:17.197Z,99959.84
2022-08-28T06:44:44.537Z,99973.44
2022-08-28T06:47:24.822Z,99975.22
2022-08-28T06:49:56.080Z,99973.41
2022-08-28T06:52:33.527Z,99972.22
2022-08-28T06:55:02.813Z,99972.13
2022-08-28T06:57:30.665Z,99971.88
2022-08-28T07:00:01.372Z,99965.38
2022-08-28T07:02:32.818Z,99975.56
2022-08-28T07:05:03.491Z,99968.41
2022-08-28T07:07:34.046Z,99977.25
2022-08-28T07:10:02.082Z,99970.19
2022-08-28T07:12:29.802Z,99974.19
2022-08-28T07:14:57.370Z,99979.88
2022-08-28T07:17:24.793Z,99984.41
2022-08-28T07:19:57.681Z,99977.00
2022-08-28T07:22:26.118Z,99968.88
2022-08-28T07:24:54.658Z,99971.34
2022-08-28T07:27:25.306Z,99971.44
2022-08-28T07:29:52.749Z,99975.09
2022-08-28T07:32:20.399Z,99976.28
2022-08-28T07:34:52.084Z,99985.69
2022-08-28T07:37:19.879Z,99981.44
2022-08-28T07:39:51.268Z,99986.09
2022-08-28T07:42:21.747Z,99985.66
2022-08-28T07:44:49.654Z,99986.53
2022-08-28T07:47:18.274Z,99986.16
2022-08-28T07:49:49.253Z,99985.00
2022-08-28T07:52:16.647Z,99983.41
2022-08-28T07:54:54.828Z,99978.69
2022-08-28T07:57:22.904Z,99980.25
2022-08-28T07:59:56.528Z,99973.97
2022-08-28T08:02:29.987Z,99972.38
2022-08-28T08:05:00.411Z,99975.53
2022-08-28T08:07:34.096Z,99972.41
2022-08-28T08:10:04.750Z,99970.03
2022-08-28T08:12:35.888Z,99970.03
2022-08-28T08:15:10.614Z,99966.09
2022-08-28T08:17:38.105Z,99971.97
2022-08-28T08:20:07.052Z,99968.41
2022-08-28T08:22:36.151Z,99972.28
2022-08-28T08:25:09.864Z,99976.25
2022-08-28T08:27:43.025Z,99978.16
2022-08-28T08:30:16.266Z,99977.72
2022-08-28T08:32:44.061Z,99972.16
2022-08-28T08:35:14.630Z,99967.41
2022-08-28T08:37:45.238Z,99969.03
2022-08-28T08:40:15.993Z,99973.66
2022-08-28T08:42:45.020Z,99966.47
2022-08-28T08:45:18.050Z,99967.16
2022-08-28T08:47:50.474Z,99969.47
2022-08-28T08:50:22.946Z,99967.88
2022-08-28T08:52:59.077Z,99960.06
2022-08-28T08:55:28.306Z,99961.94
2022-08-28T08:57:59.261Z,99960.28
2022-08-28T09:00:27.510Z,99959.03
2022-08-28T09:02:59.069Z,99950.41
2022-08-28T09:05:37.515Z,99952.59
2022-08-28T09:08:13.227Z,99947.78
2022-08-28T09:10:45.198Z,99955.22
2022-08-28T09:13:20.266Z,99954.69
2022-08-28T09:15:56.407Z,99951.53
2022-08-28T09:18:26.117Z,99954.16
2022-08-28T09:20:58.642Z,99954.34
2022-08-28T09:23:32.128Z,99949.09
2022-08-28T09:26:08.431Z,99958.22
2022-08-28T09:28:40.383Z,99953.91
2022-08-28T09:31:09.894Z,99947.53
2022-08-28T09:33:44.902Z,99945.59
2022-08-28T09:36:29.879Z,99953.41
2022-08-28T09:39:19.779Z,99948.88
2022-08-28T09:41:53.843Z,99956.31
2022-08-28T09:44:24.336Z,99944.00
2022-08-28T09:46:51.611Z,99950.16
2022-08-28T09:49:26.463Z,99943.69
2022-08-28T09:51:54.095Z,99939.84
2022-08-28T09:54:36.879Z,99944.66
2022-08-28T09:57:04.211Z,99939.06
2022-08-28T09:59:35.109Z,99944.56
2022-08-28T10:02:11.723Z,99941.91
2022-08-28T10:05:09.639Z,99938.63
2022-08-28T10:07:51.871Z,99946.19
2022-08-28T10:10:43.013Z,99933.91
2022-08-28T10:13:16.774Z,99928.25
2022-08-28T10:15:44.606Z,99923.91
2022-08-28T10:18:34.072Z,99927.19
2022-08-28T10:21:04.446Z,99925.41
2022-08-28T10:23:35.153Z,99928.06
2022-08-28T10:26:30.083Z,99921.25
2022-08-28T10:29:16.378Z,99922.41
2022-08-28T10:32:13.353Z,99917.97
2022-08-28T10:35:03.819Z,99910.00
2022-08-28T10:37:43.702Z,99916.16
2022-08-28T10:40:25.840Z,99910.75
2022-08-28T10:43:03.107Z,99909.69
2022-08-28T10:45:40.647Z,99903.66
2022-08-28T10:48:25.992Z,99903.06
2022-08-28T10:50:58.702Z,99902.31
2022-08-28T10:53:46.074Z,99902.63
2022-08-28T10:56:15.922Z,99902.41
2022-08-28T10:58:51.947Z,99910.13
2022-08-28T11:01:41.305Z,99903.72
2022-08-28T11:04:25.185Z,99905.09
2022-08-28T11:06:55.240Z,99905.94
2022-08-28T11:09:35.497Z,99903.66
2022-08-28T11:12:05.450Z,99902.34
2022-08-28T11:14:48.503Z,99900.78
2022-08-28T11:17:24.532Z,99893.59
2022-08-28T11:20:07.290Z,99894.75
2022-08-28T11:22:44.862Z,99895.47
2022-08-28T11:25:26.587Z,99888.28
2022-08-28T11:28:20.136Z,99889.59
2022-08-28T11:30:49.237Z,99886.72
2022-08-28T11:33:35.065Z,99887.94
2022-08-28T11:36:02.920Z,99895.75
2022-08-28T11:38:39.172Z,99892.44
2022-08-28T11:41:20.692Z,99889.06
2022-08-28T11:44:07.962Z,99880.38
2022-08-28T11:46:40.790Z,99880.72
2022-08-28T11:49:26.501Z,99886.25
2022-08-28T11:52:12.539Z,99874.47
2022-08-28T11:54:58.247Z,99879.53
2022-08-28T11:57:31.344Z,99873.75
2022-08-28T12:00:09.713Z,99875.41
2022-08-28T12:02:46.561Z,99862.31
2022-08-28T12:05:29.696Z,99864.09
2022-08-28T12:08:03.502Z,99855.78
2022-08-28T12:10:35.063Z,99856.31
2022-08-28T12:13:28.072Z,99850.53
2022-08-28T12:16:12.006Z,99846.56
2022-08-28T12:18:49.305Z,99849.47
2022-08-28T12:21:23.850Z,99861.50
2022-08-28T12:24:09.219Z,99855.81
2022-08-28T12:26:44.937Z,99853.50
2022-08-28T12:29:30.544Z,99842.28
2022-08-28T12:32:06.970Z,99846.44
2022-08-28T12:34:49.597Z,99844.97
2022-08-28T12:37:24.036Z,99838.75
2022-08-28T12:39:58.113Z,99840.66
2022-08-28T12:42:31.825Z,99839.94
2022-08-28T12:45:06.041Z,99840.22
2022-08-28T12:47:40.680Z,99833.53
2022-08-28T12:50:37.416Z,99831.31
2022-08-28T12:53:12.935Z,99838.97
2022-08-28T12:55:40.941Z,99834.78
2022-08-28T12:58:34.299Z,99834.16
2022-08-28T13:01:04.049Z,99835.13
2022-08-28T13:03:33.733Z,99831.78
2022-08-28T13:06:07.633Z,99827.13
2022-08-28T13:08:41.341Z,99829.44
2022-08-28T13:11:17.896Z,99834.97
2022-08-28T13:13:51.100Z,99825.56
2022-08-28T13:16:40.034Z,99826.47
2022-08-28T13:19:12.530Z,99824.94
2022-08-28T13:21:46.189Z,99825.78
2022-08-28T13:24:23.626Z,99826.16
2022-08-28T13:27:11.282Z,99828.03
2022-08-28T13:29:48.762Z,99829.50
2022-08-28T13:32:21.074Z,99824.34
2022-08-28T13:35:30.417Z,99817.56
2022-08-28T13:38:00.168Z,99821.72
2022-08-28T13:41:00.094Z,99830.66
2022-08-28T13:43:29.797Z,99821.09
2022-08-28T13:46:00.042Z,99819.09
2022-08-28T13:48:28.217Z,99812.81
2022-08-28T13:51:10.250Z,99810.06
2022-08-28T13:53:41.980Z,99803.22
2022-08-28T13:56:14.652Z,99807.28
2022-08-28T13:58:57.393Z,99809.91
2022-08-28T14:01:30.741Z,99810.69
2022-08-28T14:04:07.865Z,99806.78
2022-08-28T14:06:37.957Z,99811.66
2022-08-28T14:09:06.507Z,99804.66
2022-08-28T14:11:33.722Z,99801.66
2022-08-28T14:14:04.031Z,99806.94
2022-08-28T14:16:34.515Z,99802.19
2022-08-28T14:19:18.797Z,99809.88
2022-08-28T14:21:49.443Z,99809.16
2022-08-28T14:24:21.103Z,99814.78
2022-08-28T14:26:52.942Z,99811.59
2022-08-28T14:29:27.708Z,99817.94
2022-08-28T14:31:58.443Z,99817.13
2022-08-28T14:34:28.586Z,99812.44
2022-08-28T14:37:01.717Z,99811.00
2022-08-28T14:39:33.063Z,99812.22
2022-08-28T14:42:13.010Z,99809.97
2022-08-28T14:44:48.947Z,99804.50
2022-08-28T14:47:19.818Z,99796.22
2022-08-28T14:49:47.494Z,99791.09
2022-08-28T14:52:18.168Z,99793.78
2022-08-28T14:54:51.903Z,99805.28
2022-08-28T14:57:25.752Z,99801.00
2022-08-28T14:59:53.416Z,99791.22
2022-08-28T15:05:20.518Z,99796.53
2022-08-28T15:08:01.637Z,99791.00
2022-08-28T15:10:32.416Z,99784.03
2022-08-28T15:16:10.597Z,99784.56
2022-08-28T15:18:54.118Z,99782.66
2022-08-28T15:21:38.368Z,99782.66
2022-08-28T15:24:10.386Z,99782.19
2022-08-28T15:26:51.534Z,99783.78
2022-08-28T15:29:34.889Z,99774.41
2022-08-28T15:32:19.129Z,99782.75
2022-08-28T15:34:55.725Z,99773.38
2022-08-28T15:37:32.430Z,99771.91
2022-08-28T15:40:13.866Z,99775.94
2022-08-28T15:42:57.968Z,99780.78
2022-08-28T15:45:34.758Z,99780.06
2022-08-28T15:48:10.411Z,99783.28
2022-08-28T15:50:54.584Z,99777.00
2022-08-28T15:53:28.604Z,99773.13
2022-08-28T15:56:15.204Z,99772.34
2022-08-28T15:58:57.434Z,99775.63
2022-08-28T16:01:47.591Z,99770.91
2022-08-28T16:04:24.868Z,99765.47
2022-08-28T16:10:02.033Z,99756.94
2022-08-28T16:12:43.415Z,99764.09
2022-08-28T16:15:25.660Z,99760.97
2022-08-28T16:18:14.976Z,99760.59
2022-08-28T16:21:04.889Z,99765.00
2022-08-28T16:23:43.456Z,99765.81
2022-08-28T16:26:32.276Z,99758.38
2022-08-28T16:29:08.308Z,99763.53
2022-08-28T16:31:46.477Z,99768.31
2022-08-28T16:34:19.565Z,99766.41
2022-08-28T16:36:56.950Z,99771.97
2022-08-28T16:39:37.959Z,99767.69
2022-08-28T16:42:13.567Z,99768.53
2022-08-28T16:44:50.653Z,99767.38
2022-08-28T16:47:24.239Z,99774.84
2022-08-28T16:50:04.392Z,99775.66
2022-08-28T16:52:41.193Z,99780.44
2022-08-28T16:55:15.571Z,99791.47
2022-08-28T16:57:49.331Z,99779.72
2022-08-28T17:00:33.431Z,99781.75
2022-08-28T17:03:10.909Z,99785.34
2022-08-28T17:05:43.732Z,99795.94
2022-08-28T17:08:21.876Z,99798.34
2022-08-28T17:11:02.426Z,99795.63
2022-08-28T17:13:38.645Z,99803.09
2022-08-28T17:16:16.075Z,99811.38
2022-08-28T17:18:52.104Z,99812.16
2022-08-28T17:21:36.033Z,99818.06
2022-08-28T17:24:13.317Z,99825.16
2022-08-28T17:26:56.966Z,99831.09
2022-08-28T17:29:34.767Z,99826.38
2022-08-28T17:32:24.146Z,99827.16
2022-08-28T17:35:20.575Z,99826.81
2022-08-28T17:38:05.763Z,99835.03
2022-08-28T17:40:56.202Z,99831.91
2022-08-28T17:43:36.689Z,99839.38
2022-08-28T17:46:16.909Z,99835.84
2022-08-28T17:48:56.367Z,99831.50
2022-08-28T17:51:41.971Z,99845.25
2022-08-28T17:54:29.744Z,99834.25
2022-08-28T17:57:06.875Z,99840.56
2022-08-28T17:59:41.475Z,99843.28
2022-08-28T18:02:18.586Z,99844.84
2022-08-28T18:04:49.576Z,99853.88
2022-08-28T18:07:28.385Z,99846.84
2022-08-28T18:10:04.448Z,99853.88
2022-08-28T18:12:45.638Z,99853.91
2022-08-28T18:15:17.011Z,99857.00
2022-08-28T18:17:57.721Z,99855.84
2022-08-28T18:20:40.440Z,99857.03
2022-08-28T18:23:11.307Z,99866.44
2022-08-28T18:25:50.834Z,99864.47
2022-08-28T18:28:27.738Z,99873.50
2022-08-28T18:30:56.311Z,99866.44
2022-08-28T18:33:27.595Z,99874.28
2022-08-28T18:35:54.902Z,99873.88
2022-08-28T18:38:23.699Z,99875.84
2022-08-28T18:40:51.074Z,99886.03
2022-08-28T18:43:19.104Z,99876.94
2022-08-28T18:45:46.575Z,99879.69
2022-08-28T18:48:14.459Z,99879.28
2022-08-28T18:50:46.149Z,99891.41
2022-08-28T18:53:19.194Z,99889.47
2022-08-28T18:55:47.193Z,99897.69
2022-08-28T18:58:18.979Z,99894.53
2022-08-28T19:00:46.269Z,99901.19
2022-08-28T19:03:14.290Z,99899.19
2022-08-28T19:05:41.865Z,99904.66
2022-08-28T19:08:10.055Z,99900.75
2022-08-28T19:10:37.970Z,99905.44
2022-08-28T19:13:05.850Z,99904.59
2022-08-28T19:15:34.343Z,99915.94
2022-08-28T19:18:03.691Z,99916.72
2022-08-28T19:20:32.561Z,99920.63
2022-08-28T19:23:00.835Z,99928.41
2022-08-28T19:25:29.939Z,99931.19
2022-08-28T19:27:59.574Z,99930.38
2022-08-28T19:30:30.052Z,99929.16
2022-08-28T19:32:57.373Z,99928.38
2022-08-28T19:35:24.947Z,99924.94
2022-08-28T19:37:53.279Z,99942.50
2022-08-28T19:40:21.857Z,99946.78
2022-08-28T19:42:49.185Z,99951.41
2022-08-28T19:45:17.021Z,99947.16
2022-08-28T19:47:45.390Z,99946.03
2022-08-28T19:50:14.071Z,99954.63
2022-08-28T19:52:42.645Z,99950.34
2022-08-28T19:55:16.570Z,99943.66
2022-08-28T19:57:44.475Z,99949.78
2022-08-28T20:00:12.916Z,99959.91
2022-08-28T20:02:40.335Z,99962.94
2022-08-28T20:05:08.314Z,99957.41
2022-08-28T20:07:35.760Z,99960.47
2022-08-28T20:10:04.071Z,99967.81
2022-08-28T20:12:31.536Z,99964.28
2022-08-28T20:15:03.236Z,99960.22
2022-08-28T20:17:31.448Z,99959.81
2022-08-28T20:20:03.042Z,99960.56
2022-08-28T20:22:31.204Z,99967.22
2022-08-28T20:25:00.968Z,99967.16
2022-08-28T20:27:28.717Z,99964.00
2022-08-28T20:29:56.483Z,99971.78
2022-08-28T20:32:23.996Z,99967.88
2022-08-28T20:34:51.524Z,99973.34
2022-08-28T20:37:18.986Z,99972.53
2022-08-28T20:39:46.405Z,99973.28
2022-08-28T20:42:14.113Z,99976.72
2022-08-28T20:44:42.538Z,99975.47
2022-08-28T20:47:09.963Z,99978.56
2022-08-28T20:49:39.396Z,99980.38
2022-08-28T20:52:07.262Z,99975.69
2022-08-28T20:54:37.888Z,99981.47
2022-08-28T20:57:08.031Z,99976.31
2022-08-28T20:59:40.012Z,99973.91
2022-08-28T21:02:12.690Z,99973.09
2022-08-28T21:04:49.921Z,99976.56
2022-08-28T21:07:24.611Z,99976.78
2022-08-28T21:10:05.979Z,99983.75
2022-08-28T21:12:36.888Z,99974.06
2022-08-28T21:15:07.904Z,99982.91
2022-08-28T21:17:35.980Z,99985.88
2022-08-28T21:20:10.224Z,99988.97
2022-08-28T21:22:38.442Z,99985.59
2022-08-28T21:25:09.873Z,99980.81
2022-08-28T21:27:37.587Z,99982.00
2022-08-28T21:30:10.739Z,99983.53
2022-08-28T21:32:38.801Z,99990.91
2022-08-28T21:35:08.650Z,99985.81
2022-08-28T21:37:37.055Z,99984.63
2022-08-28T21:40:06.548Z,99988.78
2022-08-28T21:42:34.954Z,99981.28
2022-08-28T21:45:04.152Z,99987.94
2022-08-28T21:47:33.868Z,99985.16
2022-08-28T21:50:01.484Z,99992.88
2022-08-28T21:52:32.202Z,99988.78
2022-08-28T21:55:08.408Z,99999.63
2022-08-28T21:57:36.300Z,99997.19
2022-08-28T22:00:08.933Z,99993.16
2022-08-28T22:02:36.719Z,99993.88
2022-08-28T22:05:04.601Z,100001.53
2022-08-28T22:07:32.022Z,99997.53
2022-08-28T22:09:59.756Z,99994.50
2022-08-28T22:12:27.211Z,99993.50
2022-08-28T22:14:54.608Z,99992.50
2022-08-28T22:17:22.559Z,100002.63
2022-08-28T22:19:49.886Z,99995.53
2022-08-28T22:22:20.619Z,100008.19
2022-08-28T22:24:48.159Z,100000.28
2022-08-28T22:27:15.904Z,100005.50
2022-08-28T22:29:43.567Z,99997.75
2022-08-28T22:32:11.015Z,100006.72
2022-08-28T22:34:42.519Z,100000.00
2022-08-28T22:37:11.813Z,99996.69
2022-08-28T22:39:40.933Z,100001.59
2022-08-28T22:42:09.775Z,100003.44
2022-08-28T22:44:38.239Z,100006.81
2022-08-28T22:47:06.177Z,99999.66
2022-08-28T22:49:33.785Z,99997.13
2022-08-28T22:52:03.683Z,99999.38
2022-08-28T22:54:32.752Z,100003.28
2022-08-28T22:57:00.219Z,100003.19
2022-08-28T22:59:27.684Z,100008.88
2022-08-28T23:01:55.215Z,100006.34
2022-08-28T23:04:22.604Z,100003.25
2022-08-28T23:06:50.377Z,100008.72
2022-08-28T23:09:17.993Z,100003.16
2022-08-28T23:11:45.447Z,100005.66
2022-08-28T23:14:13.377Z,100012.31
2022-08-28T23:16:40.824Z,100014.41
2022-08-28T23:19:10.342Z,100009.41
2022-08-28T23:21:43.911Z,100006.75
2022-08-28T23:24:16.278Z,100009.38
2022-08-28T23:26:45.114Z,100014.38
2022-08-28T23:29:13.318Z,100011.94
2022-08-28T23:31:40.951Z,100012.72
2022-08-28T23:34:08.912Z,100011.41
2022-08-28T23:36:36.809Z,100002.28
2022-08-28T23:39:07.275Z,100015.09
2022-08-28T23:41:34.833Z,100015.88
2022-08-28T23:44:08.258Z,100009.72
2022-08-28T23:46:41.210Z,100014.13
2022-08-28T23:49:12.705Z,100018.69
2022-08-28T23:51:41.457Z,100012.47
2022-08-28T23:54:09.754Z,100015.00
2022-08-28T23:56:38.188Z,100012.72
2022-08-28T23:59:06.424Z,100012.47
